createdAt,value
2022-08-25T00:02:40.575Z,98928.89
2022-08-25T00:12:50.848Z,98927.34
2022-08-25T00:22:58.729Z,98922.99
2022-08-25T00:33:06.062Z,98921.67
2022-08-25T00:43:13.940Z,98918.28
2022-08-25T00:53:21.250Z,98924.13
2022-08-25T01:03:35.576Z,98926.29
2022-08-25T01:13:44.744Z,98926.23
2022-08-25T01:23:52.962Z,98929.72
2022-08-25T01:33:58.580Z,98931.30
2022-08-25T01:44:07.165Z,98926.73
2022-08-25T01:54:24.031Z,98913.38
2022-08-25T02:04:31.059Z,98917.81
2022-08-25T02:14:39.620Z,98911.86
2022-08-25T02:24:49.761Z,98915.30
2022-08-25T02:34:57.934Z,98909.83
2022-08-25T02:45:06.834Z,98910.88
2022-08-25T02:55:17.119Z,98902.69
2022-08-25T03:05:23.130Z,98887.98
2022-08-25T03:15:30.837Z,98890.63
2022-08-25T03:25:57.733Z,98889.89
2022-08-25T03:36:10.334Z,98886.64
2022-08-25T03:46:23.835Z,98899.69
2022-08-25T03:56:31.789Z,98900.39
2022-08-25T04:06:39.299Z,98897.92
2022-08-25T04:16:47.177Z,98898.52
2022-08-25T04:26:55.216Z,98891.14
2022-08-25T04:37:00.870Z,98893.46
2022-08-25T04:47:06.332Z,98894.39
2022-08-25T04:57:14.319Z,98889.15
2022-08-25T05:07:21.482Z,98886.09
2022-08-25T05:17:29.183Z,98886.33
2022-08-25T05:27:36.680Z,98884.41
2022-08-25T05:37:44.037Z,98880.71
2022-08-25T05:47:50.605Z,98878.91
2022-08-25T05:57:59.454Z,98868.06
2022-08-25T06:08:04.610Z,98865.35
2022-08-25T06:18:11.993Z,98869.81
2022-08-25T06:28:18.468Z,98870.73
2022-08-25T06:38:26.904Z,98879.33
2022-08-25T06:48:34.576Z,98875.95
2022-08-25T06:58:40.838Z,98879.05
2022-08-25T07:08:48.613Z,98884.88
2022-08-25T07:18:55.685Z,98885.71
2022-08-25T07:29:03.243Z,98886.23
2022-08-25T07:39:10.321Z,98882.17
2022-08-25T07:49:17.731Z,98888.31
2022-08-25T07:59:29.682Z,98895.64
2022-08-25T08:09:37.740Z,98894.16
2022-08-25T08:19:45.359Z,98893.77
2022-08-25T08:29:52.667Z,98894.02
2022-08-25T08:40:03.444Z,98885.90
2022-08-25T08:50:23.939Z,98880.41
2022-08-25T09:00:52.077Z,98873.34
2022-08-25T09:10:59.863Z,98870.19
2022-08-25T09:21:07.166Z,98862.37
2022-08-25T09:31:13.617Z,98854.61
2022-08-25T09:41:36.580Z,98853.48
2022-08-25T09:51:45.104Z,98854.24
2022-08-25T10:01:52.331Z,98840.65
2022-08-25T10:12:02.086Z,98834.94
2022-08-25T10:22:11.190Z,98829.93
2022-08-25T10:32:16.037Z,98820.63
2022-08-25T10:42:35.094Z,98809.83
2022-08-25T10:52:51.470Z,98802.92
2022-08-25T11:03:06.639Z,98795.76
2022-08-25T11:13:12.792Z,98791.10
2022-08-25T11:23:25.354Z,98779.20
2022-08-25T11:33:33.822Z,98772.27
2022-08-25T11:43:54.157Z,98773.01
2022-08-25T11:54:08.786Z,98751.86
2022-08-25T12:04:14.938Z,98747.60
2022-08-25T12:14:38.275Z,98733.26
2022-08-25T12:24:56.694Z,98733.36
2022-08-25T12:35:16.191Z,98728.94
2022-08-25T12:45:42.036Z,98734.81
2022-08-25T12:55:47.937Z,98733.79
2022-08-25T13:06:16.918Z,98729.45
2022-08-25T13:16:29.382Z,98726.41
2022-08-25T13:26:48.343Z,98719.32
2022-08-25T13:37:16.360Z,98708.19
2022-08-25T13:47:45.360Z,98705.21
2022-08-25T13:57:54.816Z,98704.80
2022-08-25T14:08:16.348Z,98697.36
2022-08-25T14:18:33.413Z,98682.12
2022-08-25T14:28:41.126Z,98675.13
2022-08-25T14:38:54.855Z,98671.11
2022-08-25T14:49:05.117Z,98660.05
2022-08-25T14:59:12.547Z,98654.23
2022-08-25T15:09:21.324Z,98646.08
2022-08-25T15:19:30.444Z,98633.27
2022-08-25T15:29:38.471Z,98637.40
2022-08-25T15:39:47.439Z,98641.19
2022-08-25T15:50:06.789Z,98634.78
2022-08-25T16:00:16.937Z,98634.17
2022-08-25T16:10:25.085Z,98622.21
2022-08-25T16:20:34.744Z,98619.29
2022-08-25T16:30:45.686Z,98616.66
2022-08-25T16:41:00.803Z,98617.88
2022-08-25T16:51:10.150Z,98620.85
2022-08-25T17:01:17.664Z,98619.31
2022-08-25T17:11:28.213Z,98619.14
2022-08-25T17:21:38.701Z,98616.70
2022-08-25T17:31:52.855Z,98627.48
2022-08-25T17:42:00.123Z,98628.27
2022-08-25T17:52:09.380Z,98623.45
2022-08-25T18:02:16.874Z,98618.48
2022-08-25T18:12:27.394Z,98621.08
2022-08-25T18:22:37.148Z,98625.94
2022-08-25T18:32:44.283Z,98637.40
2022-08-25T18:42:51.925Z,98646.77
2022-08-25T18:53:00.740Z,98648.46
2022-08-25T19:03:07.028Z,98654.73
2022-08-25T19:13:16.961Z,98657.73
2022-08-25T19:23:30.122Z,98651.21
2022-08-25T19:33:44.613Z,98648.66
2022-08-25T19:43:56.296Z,98648.88
2022-08-25T19:54:05.995Z,98648.89
2022-08-25T20:04:14.280Z,98643.44
2022-08-25T20:14:22.286Z,98643.51
2022-08-25T20:24:45.800Z,98644.22
2022-08-25T20:34:53.911Z,98640.84
2022-08-25T20:45:04.300Z,98644.44
2022-08-25T20:55:09.028Z,98642.61
2022-08-25T21:05:16.489Z,98639.91
2022-08-25T21:15:24.319Z,98634.73
2022-08-25T21:25:31.407Z,98637.11
2022-08-25T21:35:40.339Z,98629.70
2022-08-25T21:45:47.735Z,98623.89
2022-08-25T21:55:55.009Z,98618.34
2022-08-25T22:06:02.701Z,98619.59
2022-08-25T22:16:12.028Z,98613.14
2022-08-25T22:26:22.091Z,98616.96
2022-08-25T22:36:32.418Z,98609.09
2022-08-25T22:46:39.840Z,98598.36
2022-08-25T22:56:46.648Z,98590.90
2022-08-25T23:06:54.044Z,98579.65
2022-08-25T23:17:01.774Z,98582.48
2022-08-25T23:27:17.944Z,98570.13
2022-08-25T23:37:25.410Z,98565.26
2022-08-25T23:47:33.744Z,98565.04
2022-08-25T23:57:41.278Z,98559.48
